Time;durP1;ratioP1;P1;durP2;ratioP2;P2;SDS_P1;SDS_P2;PMS_P1;PMS_P2;Temp;Humidity;BMP_temperature;BMP_pressure;BME280_temperature;BME280_humidity;BME280_pressure;Samples;Min_cycle;Max_cycle;Signal;HPM_P1;HPM_P2
2021/05/15 00:00:58;;;;;;;1.23;1.00;;;;;;;;;;5093534;28;20515;-76
2021/05/15 00:03:25;;;;;;;1.50;1.13;;;;;;;;;;5092937;28;20476;-77
2021/05/15 00:05:52;;;;;;;1.40;1.07;;;;;;;;;;5093589;28;20440;-76
2021/05/15 00:08:18;;;;;;;1.40;0.93;;;;;;;;;;5091586;28;20943;-76
2021/05/15 00:10:47;;;;;;;1.27;0.90;;;;;;;;;;5093584;28;20447;-76
2021/05/15 00:13:15;;;;;;;1.37;0.80;;;;;;;;;;5092840;28;20924;-75
2021/05/15 00:15:42;;;;;;;1.03;0.80;;;;;;;;;;5093082;28;20449;-76
2021/05/15 00:18:08;;;;;;;1.37;1.20;;;;;;;;;;5093221;28;20447;-77
2021/05/15 00:20:35;;;;;;;1.13;1.00;;;;;;;;;;5093059;28;20449;-76
2021/05/15 00:23:02;;;;;;;0.67;0.60;;;;;;;;;;5092707;28;20484;-76
2021/05/15 00:25:28;;;;;;;2.00;0.83;;;;;;;;;;5092805;28;20774;-77
2021/05/15 00:27:55;;;;;;;1.43;0.80;;;;;;;;;;5092302;28;20587;-76
2021/05/15 00:30:23;;;;;;;1.50;0.90;;;;;;;;;;5092595;28;20535;-74
2021/05/15 00:32:49;;;;;;;0.93;0.83;;;;;;;;;;5092071;28;20456;-77
2021/05/15 00:35:16;;;;;;;1.60;1.30;;;;;;;;;;5090541;28;20528;-76
2021/05/15 00:37:44;;;;;;;1.53;1.20;;;;;;;;;;5090898;28;20439;-75
2021/05/15 00:40:11;;;;;;;0.83;0.80;;;;;;;;;;5091968;28;20476;-76
2021/05/15 00:42:38;;;;;;;1.10;0.70;;;;;;;;;;5091076;28;20568;-76
2021/05/15 00:45:06;;;;;;;1.87;1.00;;;;;;;;;;5092418;28;20493;-76
2021/05/15 00:47:34;;;;;;;1.00;0.80;;;;;;;;;;5091524;28;20441;-76
2021/05/15 00:50:01;;;;;;;1.33;1.07;;;;;;;;;;5092406;28;20480;-76
2021/05/15 00:52:34;;;;;;;3.13;1.00;;;;;;;;;;5091279;28;21000;-77
2021/05/15 00:55:00;;;;;;;1.80;0.97;;;;;;;;;;5092462;28;20540;-76
2021/05/15 00:57:27;;;;;;;4.30;0.80;;;;;;;;;;5091894;28;20452;-76
2021/05/15 00:59:54;;;;;;;0.77;0.73;;;;;;;;;;5092520;28;20536;-76
2021/05/15 01:02:21;;;;;;;2.60;1.03;;;;;;;;;;5091734;28;20625;-76
2021/05/15 01:04:48;;;;;;;3.10;0.83;;;;;;;;;;5092383;28;20463;-75
2021/05/15 01:07:15;;;;;;;0.87;0.77;;;;;;;;;;5091471;28;20860;-75
2021/05/15 01:09:42;;;;;;;1.43;0.90;;;;;;;;;;5092909;28;20546;-75
2021/05/15 01:12:09;;;;;;;1.53;1.10;;;;;;;;;;5092252;28;20457;-75
2021/05/15 01:14:37;;;;;;;1.73;0.60;;;;;;;;;;5091779;28;20535;-77
2021/05/15 01:17:04;;;;;;;0.90;0.67;;;;;;;;;;5091134;28;20460;-76
2021/05/15 01:19:31;;;;;;;1.07;0.80;;;;;;;;;;5091156;28;20457;-76
2021/05/15 01:21:58;;;;;;;1.93;0.70;;;;;;;;;;5092270;28;20588;-76
2021/05/15 01:24:25;;;;;;;1.43;0.77;;;;;;;;;;5091140;28;20452;-76
2021/05/15 01:26:52;;;;;;;0.60;0.60;;;;;;;;;;5092072;28;20501;-76
2021/05/15 01:29:19;;;;;;;1.10;0.80;;;;;;;;;;5091540;28;20448;-76
2021/05/15 01:31:45;;;;;;;3.80;0.80;;;;;;;;;;5091894;28;20452;-76
2021/05/15 01:34:12;;;;;;;0.80;0.77;;;;;;;;;;5091983;28;20453;-76
2021/05/15 01:36:41;;;;;;;1.23;0.90;;;;;;;;;;5091183;28;20497;-76
2021/05/15 01:39:10;;;;;;;1.23;0.70;;;;;;;;;;5092298;28;20460;-76
2021/05/15 01:41:36;;;;;;;1.13;1.00;;;;;;;;;;5091601;28;20480;-75
2021/05/15 01:44:04;;;;;;;1.53;0.80;;;;;;;;;;5091723;28;20964;-77
2021/05/15 01:46:31;;;;;;;0.97;0.70;;;;;;;;;;5090611;28;20444;-77
2021/05/15 01:48:58;;;;;;;1.40;0.93;;;;;;;;;;5091961;28;20476;-76
2021/05/15 01:51:25;;;;;;;1.20;0.90;;;;;;;;;;5080183;28;20562;-75
2021/05/15 01:53:52;;;;;;;2.50;0.87;;;;;;;;;;5091573;28;20562;-76
2021/05/15 01:56:20;;;;;;;1.80;0.77;;;;;;;;;;5090957;28;20453;-75
2021/05/15 01:58:47;;;;;;;0.90;0.70;;;;;;;;;;5091794;28;20453;-76
2021/05/15 02:01:14;;;;;;;0.93;0.83;;;;;;;;;;5090795;28;20806;-72
2021/05/15 02:03:42;;;;;;;1.00;0.67;;;;;;;;;;5091184;28;20586;-75
2021/05/15 02:06:08;;;;;;;1.73;0.93;;;;;;;;;;5091410;28;20452;-75
2021/05/15 02:08:35;;;;;;;1.50;0.80;;;;;;;;;;5091446;28;20451;-75
2021/05/15 02:11:02;;;;;;;0.70;0.60;;;;;;;;;;5091747;28;20524;-76
2021/05/15 02:13:30;;;;;;;0.67;0.60;;;;;;;;;;5091073;28;20488;-76
2021/05/15 02:15:57;;;;;;;2.07;1.30;;;;;;;;;;5090917;28;20452;-76
2021/05/15 02:18:24;;;;;;;1.63;1.07;;;;;;;;;;5090251;28;20959;-76
2021/05/15 02:20:51;;;;;;;1.30;1.10;;;;;;;;;;5091748;28;20868;-76
2021/05/15 02:23:18;;;;;;;3.70;1.10;;;;;;;;;;5090696;28;20529;-76
2021/05/15 02:25:46;;;;;;;3.20;1.03;;;;;;;;;;5091130;28;20535;-76
2021/05/15 02:28:13;;;;;;;2.20;1.00;;;;;;;;;;5091398;28;20447;-76
2021/05/15 02:30:41;;;;;;;1.80;0.90;;;;;;;;;;5090720;28;20535;-76
2021/05/15 02:33:08;;;;;;;1.53;1.07;;;;;;;;;;5091342;28;20531;-76
2021/05/15 02:35:35;;;;;;;2.73;1.10;;;;;;;;;;5090624;28;20452;-76
2021/05/15 02:38:05;;;;;;;1.60;1.10;;;;;;;;;;5092351;28;20455;-76
2021/05/15 02:40:32;;;;;;;1.10;0.93;;;;;;;;;;5101470;28;20943;-76
2021/05/15 02:42:58;;;;;;;1.03;0.83;;;;;;;;;;5091461;28;20498;-75
2021/05/15 02:45:25;;;;;;;1.87;0.90;;;;;;;;;;5090770;28;20466;-76
2021/05/15 02:47:53;;;;;;;2.20;0.90;;;;;;;;;;5090548;28;20448;-76
2021/05/15 02:50:21;;;;;;;1.00;0.80;;;;;;;;;;5088208;28;20531;-76
2021/05/15 02:52:47;;;;;;;1.37;0.90;;;;;;;;;;5080025;28;20567;-77
2021/05/15 02:55:15;;;;;;;1.20;1.07;;;;;;;;;;5091090;28;20520;-77
2021/05/15 02:57:42;;;;;;;1.33;1.00;;;;;;;;;;5090385;28;20530;-75
2021/05/15 03:00:10;;;;;;;1.10;1.00;;;;;;;;;;5090688;28;20444;-75
2021/05/15 03:02:37;;;;;;;1.33;1.20;;;;;;;;;;5090169;28;20497;-76
2021/05/15 03:05:05;;;;;;;0.87;0.80;;;;;;;;;;5091120;28;20959;-76
2021/05/15 03:07:32;;;;;;;1.53;1.00;;;;;;;;;;5090026;28;20452;-76
2021/05/15 03:09:58;;;;;;;1.10;0.80;;;;;;;;;;5091024;28;20554;-76
2021/05/15 03:12:25;;;;;;;1.23;1.03;;;;;;;;;;5090897;28;20494;-75
2021/05/15 03:14:52;;;;;;;1.10;1.00;;;;;;;;;;5093663;28;20452;-76
2021/05/15 03:17:18;;;;;;;1.63;1.33;;;;;;;;;;5089973;28;20614;-76
2021/05/15 03:19:45;;;;;;;1.63;1.20;;;;;;;;;;5090892;28;20539;-76
2021/05/15 03:22:13;;;;;;;1.50;0.83;;;;;;;;;;5090941;28;20487;-75
2021/05/15 03:24:39;;;;;;;5.37;1.20;;;;;;;;;;5089934;28;20452;-75
2021/05/15 03:27:06;;;;;;;1.17;1.07;;;;;;;;;;5089973;28;20472;-76
2021/05/15 03:29:33;;;;;;;1.87;1.00;;;;;;;;;;5090250;28;20452;-76
2021/05/15 03:31:59;;;;;;;2.40;1.20;;;;;;;;;;5090526;28;20539;-76
2021/05/15 03:34:26;;;;;;;1.20;1.10;;;;;;;;;;5090308;28;20445;-76
2021/05/15 03:36:53;;;;;;;1.13;1.03;;;;;;;;;;5090270;28;20861;-76
2021/05/15 03:39:20;;;;;;;1.60;1.23;;;;;;;;;;5088330;28;20470;-76
2021/05/15 03:41:47;;;;;;;1.60;1.30;;;;;;;;;;5090426;28;20853;-75
2021/05/15 03:44:14;;;;;;;2.50;0.87;;;;;;;;;;5093910;28;20544;-76
2021/05/15 03:46:41;;;;;;;1.10;0.93;;;;;;;;;;5093944;28;20456;-75
2021/05/15 03:49:08;;;;;;;1.00;0.80;;;;;;;;;;5093801;28;20528;-76
2021/05/15 03:51:34;;;;;;;0.90;0.90;;;;;;;;;;5088360;28;20817;-76
2021/05/15 03:54:01;;;;;;;1.63;0.93;;;;;;;;;;5091954;28;20575;-76
2021/05/15 03:56:29;;;;;;;1.57;1.10;;;;;;;;;;5092760;28;20524;-77
2021/05/15 03:58:55;;;;;;;1.40;1.00;;;;;;;;;;5093948;28;20445;-76
2021/05/15 04:01:22;;;;;;;3.23;1.17;;;;;;;;;;5092888;28;20601;-75
2021/05/15 04:03:49;;;;;;;2.07;1.50;;;;;;;;;;5093858;28;20533;-75
2021/05/15 04:06:16;;;;;;;1.13;0.93;;;;;;;;;;5093292;28;20541;-72
2021/05/15 04:08:42;;;;;;;4.53;1.07;;;;;;;;;;5093740;28;20445;-75
2021/05/15 04:11:09;;;;;;;2.40;1.30;;;;;;;;;;5093671;28;20980;-74
2021/05/15 04:13:43;;;;;;;1.53;1.10;;;;;;;;;;5086488;28;20518;-77
2021/05/15 04:16:14;;;;;;;4.00;2.23;;;;;;;;;;5093064;28;20444;-76
2021/05/15 04:18:41;;;;;;;3.30;1.40;;;;;;;;;;5092994;28;20825;-76
2021/05/15 04:21:07;;;;;;;2.00;1.10;;;26.80;1.00;;;;;;5093795;28;20437;-76
2021/05/15 04:23:34;;;;;;;1.77;1.10;;;10.00;99.90;;;;;;5092887;28;20494;-76
2021/05/15 04:26:01;;;;;;;1.40;1.20;;;9.70;99.90;;;;;;5091418;28;20590;-76
2021/05/15 04:28:29;;;;;;;0.97;0.90;;;9.70;99.90;;;;;;5091706;28;20441;-75
2021/05/15 04:30:57;;;;;;;3.60;1.07;;;9.80;99.90;;;;;;5091938;28;20544;-77
2021/05/15 04:33:24;;;;;;;1.43;1.10;;;9.80;99.90;;;;;;5092883;28;20933;-71
2021/05/15 04:35:51;;;;;;;1.10;1.00;;;9.90;99.90;;;;;;5088271;28;20440;-77
2021/05/15 04:38:18;;;;;;;1.13;1.03;;;9.90;99.90;;;;;;5092701;28;20531;-77
2021/05/15 04:40:44;;;;;;;1.10;0.93;;;9.80;99.90;;;;;;5092535;28;20532;-73
2021/05/15 04:43:11;;;;;;;1.87;1.00;;;9.90;99.90;;;;;;5092728;28;20563;-77
2021/05/15 04:45:37;;;;;;;2.50;1.40;;;10.00;99.90;;;;;;5092855;28;20445;-75
2021/05/15 04:48:05;;;;;;;1.17;0.90;;;10.00;99.90;;;;;;5093633;28;20523;-76
2021/05/15 04:50:32;;;;;;;1.63;1.20;;;10.10;99.90;;;;;;5091624;28;21001;-78
2021/05/15 04:52:58;;;;;;;1.37;0.90;;;10.00;99.90;;;;;;5092318;28;21066;-71
2021/05/15 04:55:25;;;;;;;1.43;1.33;;;10.10;99.90;;;;;;5091412;28;20533;-71
2021/05/15 04:57:51;;;;;;;1.57;1.10;;;10.20;99.90;;;;;;5092386;28;20452;-72
2021/05/15 05:00:19;;;;;;;1.30;1.00;;;10.30;55.10;;;;;;5091713;28;20527;-71
2021/05/15 05:02:45;;;;;;;1.83;0.90;;;10.60;1.00;;;;;;5092230;28;20483;-71
2021/05/15 05:05:13;;;;;;;0.80;0.80;;;10.60;1.00;;;;;;5092264;28;20456;-72
2021/05/15 05:07:39;;;;;;;1.97;1.10;;;10.70;1.00;;;;;;5091826;28;20440;-71
2021/05/15 05:10:07;;;;;;;1.13;0.87;;;10.90;1.00;;;;;;5091661;28;20539;-65
2021/05/15 05:12:33;;;;;;;0.80;0.80;;;11.00;1.00;;;;;;5091640;28;20455;-65
2021/05/15 05:14:59;;;;;;;1.20;0.83;;;11.10;99.90;;;;;;5092467;28;20531;-67
2021/05/15 05:17:26;;;;;;;0.80;0.80;;;11.10;38.50;;;;;;5091273;28;20445;-67
2021/05/15 05:19:52;;;;;;;2.20;0.93;;;11.30;99.90;;;;;;5091676;28;21004;-67
2021/05/15 05:22:20;;;;;;;1.27;0.80;;;11.20;36.20;;;;;;5091408;28;20875;-67
2021/05/15 05:24:46;;;;;;;1.87;1.20;;;11.40;1.00;;;;;;5091885;28;20453;-67
2021/05/15 05:27:14;;;;;;;1.40;1.20;;;11.50;99.90;;;;;;5092119;28;20479;-67
2021/05/15 05:29:41;;;;;;;3.30;1.03;;;11.50;1.00;;;;;;5090910;28;20799;-67
2021/05/15 05:32:09;;;;;;;2.10;1.27;;;11.50;99.90;;;;;;5092541;28;20452;-67
2021/05/15 05:34:36;;;;;;;1.23;1.10;;;11.80;1.00;;;;;;5091702;28;20445;-67
2021/05/15 05:37:03;;;;;;;1.77;1.10;;;11.80;99.90;;;;;;5091866;28;20836;-78
2021/05/15 05:39:32;;;;;;;1.20;1.10;;;12.00;99.90;;;;;;5090793;28;20963;-73
2021/05/15 05:41:59;;;;;;;1.27;0.90;;;12.00;1.00;;;;;;5091765;28;20470;-67
2021/05/15 05:44:25;;;;;;;0.70;0.70;;;12.10;99.90;;;;;;5091448;28;20524;-67
2021/05/15 05:46:52;;;;;;;0.97;0.70;;;12.10;1.00;;;;;;5091853;28;20532;-67
2021/05/15 05:49:18;;;;;;;1.77;0.63;;;12.10;99.90;;;;;;5090570;28;20433;-66
2021/05/15 05:51:44;;;;;;;2.90;1.00;;;12.20;99.90;;;;;;5086628;28;20445;-66
2021/05/15 05:54:11;;;;;;;1.17;0.87;;;12.30;99.90;;;;;;5091610;28;20476;-67
2021/05/15 05:56:38;;;;;;;1.60;0.90;;;12.30;99.90;;;;;;5091039;28;20528;-67
2021/05/15 05:59:04;;;;;;;1.87;0.90;;;12.40;1.00;;;;;;5091218;28;20941;-68
2021/05/15 06:01:31;;;;;;;1.00;0.60;;;12.40;99.90;;;;;;5090912;28;20448;-68
2021/05/15 06:03:57;;;;;;;1.27;0.90;;;12.50;99.90;;;;;;5091092;28;20477;-69
2021/05/15 06:06:24;;;;;;;1.27;1.03;;;12.50;99.90;;;;;;5090658;28;20445;-69
2021/05/15 06:08:50;;;;;;;1.67;0.77;;;12.50;99.90;;;;;;5091127;28;20437;-68
2021/05/15 06:11:17;;;;;;;1.60;0.80;;;12.60;99.90;;;;;;5091398;28;20509;-67
2021/05/15 06:13:44;;;;;;;2.20;1.10;;;12.50;1.00;;;;;;5091320;28;20535;-68
2021/05/15 06:16:11;;;;;;;1.33;0.90;;;12.50;36.10;;;;;;5091149;28;20933;-69
2021/05/15 06:18:37;;;;;;;0.90;0.70;;;12.40;56.30;;;;;;5091088;28;20505;-69
2021/05/15 06:21:04;;;;;;;0.90;0.80;;;12.50;53.30;;;;;;5091115;28;20448;-68
2021/05/15 06:23:30;;;;;;;3.77;0.80;;;12.60;1.00;;;;;;5090759;28;20484;-68
2021/05/15 06:25:57;;;;;;;0.73;0.70;;;12.70;1.00;;;;;;5091239;28;20536;-67
2021/05/15 06:28:23;;;;;;;2.40;0.97;;;12.80;99.90;;;;;;5090234;28;20536;-67
2021/05/15 06:30:50;;;;;;;1.40;0.90;;;12.90;99.90;;;;;;5090342;28;20535;-72
2021/05/15 06:33:17;;;;;;;1.23;0.87;;;12.90;99.90;;;;;;5090942;28;20441;-65
2021/05/15 06:35:43;;;;;;;1.00;0.67;;;13.00;99.90;;;;;;5091273;28;20478;-67
2021/05/15 06:38:10;;;;;;;1.13;0.97;;;13.10;12.00;;;;;;5091351;28;20473;-68
2021/05/15 06:40:36;;;;;;;1.67;0.80;;;13.40;1.00;;;;;;5089692;28;20493;-69
2021/05/15 06:43:03;;;;;;;0.93;0.70;;;13.60;1.00;;;;;;5091136;28;20832;-70
2021/05/15 06:45:29;;;;;;;0.93;0.73;;;13.60;1.00;;;;;;5090296;28;20543;-69
2021/05/15 06:47:58;;;;;;;0.90;0.70;;;13.80;1.00;;;;;;5091169;28;20541;-69
2021/05/15 06:50:24;;;;;;;0.90;0.80;;;13.90;99.90;;;;;;5089609;28;20444;-68
2021/05/15 06:52:50;;;;;;;1.30;0.80;;;13.70;99.90;;;;;;5090821;28;20566;-69
2021/05/15 06:55:17;;;;;;;1.57;0.80;;;13.80;99.90;;;;;;5090980;28;20509;-69
2021/05/15 06:57:44;;;;;;;1.60;1.20;;;13.80;99.90;;;;;;5090756;28;20523;-69
2021/05/15 07:00:11;;;;;;;1.40;1.20;;;14.00;99.90;;;;;;5090515;28;20900;-69
2021/05/15 07:02:38;;;;;;;1.20;0.77;;;14.10;99.90;;;;;;5089974;28;20611;-69
2021/05/15 07:05:06;;;;;;;0.87;0.60;;;14.20;99.90;;;;;;5090974;28;20445;-71
2021/05/15 07:07:32;;;;;;;1.53;0.63;;;14.00;99.90;;;;;;5090368;28;20961;-71
2021/05/15 07:09:59;;;;;;;1.43;0.80;;;13.90;99.90;;;;;;5090494;28;20484;-71
2021/05/15 07:12:25;;;;;;;0.70;0.60;;;14.00;99.90;;;;;;5090511;28;20474;-70
2021/05/15 07:14:52;;;;;;;3.47;2.20;;;14.00;99.90;;;;;;5090898;28;20440;-70
2021/05/15 07:17:24;;;;;;;0.90;0.80;;;14.10;99.90;;;;;;5090604;28;20974;-69
2021/05/15 07:19:51;;;;;;;0.80;0.80;;;14.20;88.40;;;;;;5093977;28;20444;-72
2021/05/15 07:22:18;;;;;;;1.27;0.80;;;14.20;70.70;;;;;;5094208;28;20454;-67
2021/05/15 07:24:45;;;;;;;1.23;0.93;;;14.00;97.30;;;;;;5094675;28;20860;-70
2021/05/15 07:27:11;;;;;;;1.00;0.80;;;14.10;99.90;;;;;;5094569;28;20472;-69
2021/05/15 07:29:37;;;;;;;1.17;0.80;;;14.10;82.60;;;;;;5093855;28;20491;-70
2021/05/15 07:32:05;;;;;;;1.70;0.83;;;14.00;92.50;;;;;;5094393;28;20535;-70
2021/05/15 07:34:31;;;;;;;2.00;0.63;;;14.00;83.80;;;;;;5093893;28;20890;-70
2021/05/15 07:36:57;;;;;;;1.90;0.80;;;14.00;46.40;;;;;;5094544;28;20455;-70
2021/05/15 07:39:25;;;;;;;2.43;1.00;;;13.70;48.40;;;;;;5092889;28;20656;-69
2021/05/15 07:41:51;;;;;;;1.53;0.93;;;13.90;67.10;;;;;;5094210;28;20527;-69
2021/05/15 07:44:18;;;;;;;1.33;0.60;;;13.80;73.00;;;;;;5093937;28;20828;-66
2021/05/15 07:46:44;;;;;;;1.87;0.80;;;13.90;62.70;;;;;;5093907;28;20444;-69
2021/05/15 07:49:11;;;;;;;1.63;0.73;;;14.00;53.00;;;;;;5093964;28;20448;-67
2021/05/15 07:51:37;;;;;;;1.93;1.40;;;14.20;25.30;;;;;;5093676;28;20531;-71
2021/05/15 07:54:05;;;;;;;1.00;0.90;;;14.40;1.00;;;;;;5094073;28;20476;-71
2021/05/15 07:56:32;;;;;;;1.17;0.87;;;14.50;1.00;;;;;;5093585;28;20452;-70
2021/05/15 07:58:58;;;;;;;1.47;1.00;;;14.50;1.00;;;;;;5093367;28;20488;-70
2021/05/15 08:01:25;;;;;;;2.10;0.57;;;14.60;1.00;;;;;;5093015;28;20445;-69
2021/05/15 08:03:51;;;;;;;4.07;1.30;;;14.70;1.00;;;;;;5093610;28;20476;-71
2021/05/15 08:06:18;;;;;;;2.60;1.30;;;14.60;1.00;;;;;;5093464;28;20527;-68
2021/05/15 08:08:44;;;;;;;3.17;0.90;;;14.50;1.00;;;;;;5093167;28;20819;-70
2021/05/15 08:11:11;;;;;;;2.50;0.90;;;14.60;1.00;;;;;;5093692;28;20524;-69
2021/05/15 08:13:39;;;;;;;0.80;0.80;;;14.30;1.00;;;;;;5093169;28;20652;-73
2021/05/15 08:16:06;;;;;;;0.90;0.80;;;14.20;1.00;;;;;;5093105;28;20451;-68
2021/05/15 08:18:32;;;;;;;2.30;0.80;;;14.20;1.00;;;;;;5091828;28;20484;-66
2021/05/15 08:20:58;;;;;;;0.97;0.70;;;14.20;1.00;;;;;;5091968;28;20552;-70
2021/05/15 08:23:25;;;;;;;1.23;0.70;;;14.30;1.00;;;;;;5081670;28;20575;-69
2021/05/15 08:25:51;;;;;;;2.17;0.70;;;14.50;1.00;;;;;;5092648;28;20635;-69
2021/05/15 08:28:18;;;;;;;1.10;0.90;;;14.50;1.00;;;;;;5085981;28;20532;-69
2021/05/15 08:30:45;;;;;;;0.87;0.60;;;14.40;1.00;;;;;;5091767;28;20844;-68
2021/05/15 08:33:12;;;;;;;1.30;0.70;;;14.40;1.00;;;;;;5092176;28;20528;-68
2021/05/15 08:35:39;;;;;;;0.87;0.80;;;14.30;1.00;;;;;;5092095;28;20456;-68
2021/05/15 08:38:06;;;;;;;0.90;0.70;;;14.30;1.00;;;;;;5093112;28;20822;-69
2021/05/15 08:40:34;;;;;;;0.77;0.57;;;14.30;1.00;;;;;;5091173;28;20454;-67
2021/05/15 08:43:00;;;;;;;3.10;0.93;;;14.50;1.00;;;;;;5092927;28;20599;-67
2021/05/15 08:45:27;;;;;;;1.00;0.80;;;14.70;1.00;;;;;;5092519;28;20956;-67
2021/05/15 08:47:57;;;;;;;0.83;0.77;;;14.80;1.00;;;;;;5086544;28;20470;-69
2021/05/15 08:50:27;;;;;;;4.40;1.13;;;14.90;1.00;;;;;;5088277;28;20531;-67
2021/05/15 08:52:55;;;;;;;1.13;0.90;;;14.90;1.00;;;;;;5091864;28;20567;-70
2021/05/15 08:55:23;;;;;;;1.47;0.70;;;14.90;1.00;;;;;;5092270;28;20449;-69
2021/05/15 08:57:50;;;;;;;1.00;0.63;;;14.90;1.00;;;;;;5092971;28;20527;-69
2021/05/15 09:00:20;;;;;;;0.70;0.63;;;15.00;1.00;;;;;;5092381;28;20480;-69
2021/05/15 09:02:48;;;;;;;2.03;0.87;;;14.80;1.00;;;;;;5092869;28;20892;-68
2021/05/15 09:05:17;;;;;;;2.13;0.83;;;14.90;1.00;;;;;;5092694;28;20812;-68
2021/05/15 09:07:49;;;;;;;0.97;0.90;;;14.90;1.00;;;;;;5092823;28;20452;-68
2021/05/15 09:10:19;;;;;;;0.80;0.80;;;14.80;1.00;;;;;;5092114;28;20441;-68
2021/05/15 09:12:46;;;;;;;1.00;0.90;;;15.00;1.00;;;;;;5092149;28;20461;-68
2021/05/15 09:15:14;;;;;;;2.10;0.83;;;15.10;1.00;;;;;;5092402;28;20476;-68
2021/05/15 09:17:45;;;;;;;4.70;0.90;;;14.90;1.00;;;;;;5091349;28;20536;-67
2021/05/15 09:20:22;;;;;;;1.00;0.87;;;15.00;1.00;;;;;;5091950;28;20441;-68
2021/05/15 09:22:48;;;;;;;2.90;0.80;;;15.30;1.00;;;;;;5092148;28;20480;-68
2021/05/15 09:25:16;;;;;;;0.70;0.70;;;15.50;1.00;;;;;;5092300;28;20444;-68
2021/05/15 09:27:42;;;;;;;1.57;0.80;;;15.50;1.00;;;;;;5091302;28;20457;-68
2021/05/15 09:30:10;;;;;;;4.00;0.90;;;15.70;1.00;;;;;;5092030;28;20846;-68
2021/05/15 09:32:36;;;;;;;1.37;1.20;;;16.30;1.00;;;;;;5091375;28;20453;-68
2021/05/15 09:35:05;;;;;;;0.70;0.60;;;16.40;99.90;;;;;;5092146;28;20858;-68
2021/05/15 09:37:35;;;;;;;1.93;1.00;;;16.30;99.90;;;;;;5091383;28;20444;-68
2021/05/15 09:40:13;;;;;;;3.00;0.93;;;16.30;99.90;;;;;;5091105;28;20513;-68
2021/05/15 09:42:50;;;;;;;0.90;0.80;;;16.50;99.90;;;;;;5091069;28;20562;-68
2021/05/15 09:45:21;;;;;;;3.57;0.77;;;16.70;99.90;;;;;;5091557;28;20958;-68
2021/05/15 09:47:55;;;;;;;0.90;0.80;;;16.60;99.90;;;;;;5091653;28;20448;-68
2021/05/15 09:50:24;;;;;;;2.23;0.90;;;16.20;99.90;;;;;;5090884;28;20449;-68
2021/05/15 09:53:06;;;;;;;3.07;0.97;;;16.10;99.90;;;;;;5091427;28;20483;-68
2021/05/15 09:55:32;;;;;;;1.20;1.10;;;16.30;99.90;;;;;;5091068;28;20468;-68
2021/05/15 09:57:59;;;;;;;2.13;1.07;;;16.00;99.90;;;;;;5091305;28;20453;-68
2021/05/15 10:00:25;;;;;;;1.43;1.00;;;15.90;99.90;;;;;;5090469;28;20445;-68
2021/05/15 10:02:54;;;;;;;1.63;1.53;;;16.00;99.90;;;;;;5091547;28;20488;-68
2021/05/15 10:05:21;;;;;;;1.30;0.90;;;15.90;99.90;;;;;;5090556;28;20474;-68
2021/05/15 10:07:47;;;;;;;0.70;0.70;;;15.70;99.90;;;;;;5091412;28;20448;-68
2021/05/15 10:10:15;;;;;;;1.83;1.00;;;15.70;99.90;;;;;;5090920;28;20451;-68
2021/05/15 10:12:43;;;;;;;2.60;1.30;;;15.50;99.90;;;;;;5090989;28;20448;-68
2021/05/15 10:15:10;;;;;;;1.10;0.87;;;15.50;99.90;;;;;;5091314;28;20531;-68
2021/05/15 10:17:37;;;;;;;1.10;1.00;;;15.60;99.90;;;;;;5090815;28;20452;-69
2021/05/15 10:20:05;;;;;;;2.40;0.70;;;16.00;99.90;;;;;;5091174;28;20480;-68
2021/05/15 10:22:38;;;;;;;0.97;0.80;;;15.80;99.90;;;;;;5090358;28;20539;-68
2021/05/15 10:25:10;;;;;;;0.67;0.67;;;15.90;99.90;;;;;;5091468;28;20459;-68
2021/05/15 10:27:38;;;;;;;1.53;0.80;;;16.10;99.90;;;;;;5090618;28;20469;-69
2021/05/15 10:30:23;;;;;;;1.60;0.80;;;16.00;99.90;;;;;;5090752;28;20440;-68
2021/05/15 10:32:56;;;;;;;5.83;1.20;;;16.10;99.90;;;;;;5084882;28;20484;-68
2021/05/15 10:35:30;;;;;;;1.30;1.03;;;16.00;99.90;;;;;;5088056;28;20758;-68
2021/05/15 10:38:05;;;;;;;1.17;0.70;;;16.40;99.90;;;;;;5088510;28;20452;-68
2021/05/15 10:40:45;;;;;;;4.17;1.13;;;16.40;99.90;;;;;;5087260;28;20483;-68
2021/05/15 10:43:13;;;;;;;1.10;1.00;;;16.70;99.90;;;;;;5078588;28;20547;-68
2021/05/15 10:45:41;;;;;;;2.40;1.53;;;16.60;99.90;;;;;;5088083;28;20534;-66
2021/05/15 10:48:12;;;;;;;2.70;1.03;;;17.20;99.90;;;;;;5086881;28;20452;-70
2021/05/15 10:50:50;;;;;;;1.40;0.73;;;16.60;99.90;;;;;;5080296;28;20449;-68
2021/05/15 10:53:24;;;;;;;0.93;0.67;;;16.60;99.90;;;;;;5083415;28;20482;-70
2021/05/15 10:56:03;;;;;;;1.37;0.87;;;16.40;99.90;;;;;;5092222;28;20476;-74
2021/05/15 10:58:44;;;;;;;1.00;0.80;;;16.10;99.90;;;;;;5091592;28;20971;-74
2021/05/15 11:01:13;;;;;;;1.10;0.80;;;16.30;99.90;;;;;;5092718;28;20608;-69
2021/05/15 11:03:40;;;;;;;2.00;0.80;;;16.40;99.90;;;;;;5090781;28;20475;-70
2021/05/15 11:06:15;;;;;;;2.60;0.83;;;16.40;99.90;;;;;;5091562;28;20531;-69
2021/05/15 11:08:42;;;;;;;2.93;0.87;;;16.30;99.90;;;;;;5090418;28;20470;-69
2021/05/15 11:11:10;;;;;;;2.30;0.90;;;16.20;99.90;;;;;;5091396;28;20912;-69
2021/05/15 11:13:48;;;;;;;0.70;0.70;;;16.00;99.90;;;;;;5080401;28;20454;-69
2021/05/15 11:16:15;;;;;;;1.67;1.13;;;16.00;99.90;;;;;;5092001;28;20456;-69
2021/05/15 11:18:41;;;;;;;2.27;1.23;;;16.00;99.90;;;;;;5090940;28;20444;-69
2021/05/15 11:21:09;;;;;;;2.17;0.90;;;15.90;99.90;;;;;;5091786;28;20853;-69
2021/05/15 11:23:37;;;;;;;1.80;1.00;;;15.80;99.90;;;;;;5091407;28;20541;-70
2021/05/15 11:26:06;;;;;;;1.13;0.73;;;15.90;99.90;;;;;;5091692;28;20535;-69
2021/05/15 11:28:33;;;;;;;2.70;1.20;;;16.10;99.90;;;;;;5090584;28;20440;-69
2021/05/15 11:31:07;;;;;;;1.97;0.70;;;16.10;99.90;;;;;;5092064;28;20538;-69
2021/05/15 11:33:33;;;;;;;0.97;0.70;;;16.10;99.90;;;;;;5091257;28;20848;-69
2021/05/15 11:36:00;;;;;;;1.67;0.87;;;16.30;99.90;;;;;;5091593;28;20480;-70
2021/05/15 11:38:28;;;;;;;0.80;0.73;;;16.30;99.90;;;;;;5090594;28;20944;-69
2021/05/15 11:40:56;;;;;;;0.93;0.67;;;16.30;99.90;;;;;;5092072;28;20470;-69
2021/05/15 11:43:23;;;;;;;3.07;0.90;;;16.30;99.90;;;;;;5090668;28;21086;-69
2021/05/15 11:45:51;;;;;;;1.33;0.90;;;16.50;99.90;;;;;;5091656;28;20479;-70
2021/05/15 11:48:20;;;;;;;1.07;0.97;;;16.60;99.90;;;;;;5091274;28;20448;-70
2021/05/15 11:51:01;;;;;;;1.93;0.83;;;16.80;99.90;;;;;;5083635;28;20444;-69
2021/05/15 11:53:28;;;;;;;1.57;1.10;;;17.10;99.90;;;;;;5084480;28;20531;-73
2021/05/15 11:55:55;;;;;;;3.03;2.33;;;17.10;99.90;;;;;;5091258;28;20532;-69
2021/05/15 11:58:22;;;;;;;1.57;0.60;;;17.10;99.90;;;;;;5089609;28;20944;-68
2021/05/15 12:00:49;;;;;;;0.93;0.87;;;17.30;99.90;;;;;;5090883;28;20524;-69
2021/05/15 12:03:21;;;;;;;1.20;1.10;;;17.30;99.90;;;;;;5091055;28;20577;-66
2021/05/15 12:05:49;;;;;;;1.27;0.90;;;17.30;99.90;;;;;;5091300;28;20441;-66
2021/05/15 12:08:16;;;;;;;1.83;1.00;;;17.50;99.90;;;;;;5090530;28;20464;-68
2021/05/15 12:10:43;;;;;;;1.53;0.80;;;17.90;99.90;;;;;;5090559;28;20910;-67
2021/05/15 12:13:12;;;;;;;1.47;1.00;;;18.10;99.90;;;;;;5091141;28;20452;-67
2021/05/15 12:15:39;;;;;;;1.90;1.03;;;17.50;99.90;;;;;;5090303;28;20933;-67
2021/05/15 12:18:06;;;;;;;1.57;1.07;;;17.40;99.90;;;;;;5090987;28;20453;-67
2021/05/15 12:20:40;;;;;;;1.10;1.00;;;17.50;99.90;;;;;;5089680;28;21020;-67
2021/05/15 12:23:14;;;;;;;0.80;0.80;;;17.60;99.90;;;;;;5086109;28;20572;-68
2021/05/15 12:25:42;;;;;;;1.43;0.70;;;17.50;99.90;;;;;;5082387;28;20519;-67
2021/05/15 12:28:23;;;;;;;2.30;1.13;;;17.60;99.90;;;;;;5089345;28;20452;-67
2021/05/15 12:30:50;;;;;;;2.10;1.10;;;17.50;99.90;;;;;;5086850;28;20472;-67
2021/05/15 12:33:21;;;;;;;1.00;0.80;;;17.40;99.90;;;;;;5084035;28;20445;-70
2021/05/15 12:36:02;;;;;;;0.93;0.80;;;;;;;;;;5089688;28;20492;-72
2021/05/15 12:38:29;;;;;;;2.00;0.73;;;;;;;;;;5091769;28;20440;-70
2021/05/15 12:41:06;;;;;;;2.37;1.00;;;;;;;;;;5092820;28;20928;-70
2021/05/15 12:43:32;;;;;;;1.60;1.00;;;;;;;;;;5092721;28;20464;-71
2021/05/15 12:46:07;;;;;;;2.33;1.10;;;;;;;;;;5093248;28;20894;-71
2021/05/15 12:48:38;;;;;;;0.80;0.80;;;;;;;;;;5092377;28;20443;-71
2021/05/15 12:51:07;;;;;;;1.17;0.97;;;;;;;;;;5093077;28;20458;-72
2021/05/15 12:53:33;;;;;;;0.70;0.60;;;;;;;;;;5091825;28;20496;-71
2021/05/15 12:56:00;;;;;;;2.37;0.83;;;;;;;;;;5093036;28;20845;-71
2021/05/15 12:58:28;;;;;;;0.93;0.77;;;;;;;;;;5091796;28;20555;-70
2021/05/15 13:00:55;;;;;;;1.37;0.80;;;;;;;;;;5092624;28;20831;-71
2021/05/15 13:03:23;;;;;;;1.20;1.00;;;;;;;;;;5091667;28;20559;-70
2021/05/15 13:05:50;;;;;;;3.83;0.90;;;;;;;;;;5092636;28;20587;-71
2021/05/15 13:08:18;;;;;;;0.90;0.80;;;;;;;;;;5092193;28;20448;-70
2021/05/15 13:10:44;;;;;;;2.70;0.80;;;;;;;;;;5091650;28;20524;-70
2021/05/15 13:13:11;;;;;;;4.20;1.03;;;;;;;;;;5092093;28;20476;-69
2021/05/15 13:15:39;;;;;;;0.90;0.80;;;;;;;;;;5091176;28;20932;-70
2021/05/15 13:18:15;;;;;;;2.97;1.23;;;18.00;99.90;;;;;;5092108;28;20456;-70
2021/05/15 13:20:42;;;;;;;1.77;1.00;;;17.40;99.90;;;;;;5091498;28;20440;-70
2021/05/15 13:23:08;;;;;;;3.40;1.00;;;17.10;99.90;;;;;;5092362;28;20545;-71
2021/05/15 13:25:35;;;;;;;0.90;0.70;;;16.90;99.90;;;;;;5091737;28;20471;-71
2021/05/15 13:28:02;;;;;;;1.50;1.00;;;16.90;99.90;;;;;;5092278;28;20523;-70
2021/05/15 13:30:29;;;;;;;0.97;0.70;;;16.80;99.90;;;;;;5091398;28;20578;-71
2021/05/15 13:32:55;;;;;;;1.17;0.80;;;16.80;99.90;;;;;;5092329;28;20467;-70